CheckWX is a tool to help pilots better visualize weather data.  It is not intended as a substitute for an official pre-flight weather briefing.

21:30:23 UTC

PAGL METAR
Golovin Airport
Golovin, Alaska, USA
Current

34 mins ago

PAGL 082056Z AUTO 16003KT 8SM OVC018 M19/M21 A3005 RMK AO2 SNB38E56 SLP173 P0000 60000 T11891206 51011 FZRANO
Observed
Apr-8 @ 20:56 UTC
Wind
  • 160° at 3 KTS
Visibility
Flight Rules
MVFR
Cloud Levels
  • Overcast at 1,800' AGL
Temperature
-19°C / -2°F
Dewpoint
-21°C / -6°F
Humidity
84%
Altimeter
30.05" Hg
Pressure
1017.62 hPa
Current Rain
0.01"
Previous

1 hour ago

PAGL 082007Z AUTO 00000KT 10SM BKN018 M19/M22 A3005 RMK AO2 FZRANO
Observed
Apr-8 @ 20:07 UTC
Visibility
Flight Rules
MVFR
Cloud Levels
  • Broken at 1,800' AGL
Temperature
-19°C / -2°F
Dewpoint
-22°C / -8°F
Humidity
77%
Altimeter
30.05" Hg
Pressure
1017.62 hPa
Previous

2 hours ago

PAGL 081956Z AUTO 00000KT 10SM FEW018 M20/M22 A3004 RMK AO2 SLP169 T12001217 FZRANO
Observed
Apr-8 @ 19:56 UTC
Visibility
Flight Rules
VFR
Cloud Levels
  • Few at 1,800' AGL
Temperature
-20°C / -4°F
Dewpoint
-22°C / -8°F
Humidity
84%
Altimeter
30.04" Hg
Pressure
1017.32 hPa